Corydon, Kentucky
Current Conditions -  °F | °C
As of 12:35 PM on Sunday 25 Jan 2015 (Local Time) from KEHR Reporting Station
Overcast Overcast  
Wind Chill: 40°   Ceiling: 2100
Heat Index: 43°   Visibility: 9mi
Dew Point: 37°   Wind: 5mph
Humidity: 81%   Direction: 170°S
Pressure: 29.61"   Gusts: NA
Location:  37.74°N, 87.7°W
Report Text: KEHR 251835Z AUTO 17004KT 9SM BKN021 BKN035 OVC041 06/03 A2961 RMK AO1 P0004
Loading
Personal Weather Stations






























Interactive Weather Map New forecast layout! Learn more

10-Day Weather Forecast

Advertisements
Track Severe Weather on mobile